createdAt,value
2023-12-23T00:02:23.340Z,0.90
2023-12-23T00:04:51.505Z,1.60
2023-12-23T00:07:19.426Z,1.55
2023-12-23T00:09:47.264Z,1.40
2023-12-23T00:12:15.199Z,1.00
2023-12-23T00:14:43.188Z,4.57
2023-12-23T00:17:11.329Z,3.17
2023-12-23T00:19:39.500Z,2.83
2023-12-23T00:22:07.506Z,1.83
2023-12-23T00:24:35.791Z,1.10
2023-12-23T00:27:03.824Z,9.40
2023-12-23T00:29:31.922Z,1.15
2023-12-23T00:31:59.793Z,1.17
2023-12-23T00:34:27.640Z,1.42
2023-12-23T00:36:55.888Z,5.03
2023-12-23T00:39:23.691Z,4.05
2023-12-23T00:41:51.881Z,3.33
2023-12-23T00:44:19.720Z,2.22
2023-12-23T00:46:47.732Z,2.25
2023-12-23T00:49:15.731Z,1.85
2023-12-23T00:51:44.464Z,2.05
2023-12-23T00:54:12.366Z,2.53
2023-12-23T00:56:40.179Z,1.02
2023-12-23T00:59:07.930Z,1.08
2023-12-23T01:01:35.813Z,1.00
2023-12-23T01:04:03.641Z,1.33
2023-12-23T01:06:31.886Z,1.17
2023-12-23T01:09:00.580Z,0.85
2023-12-23T01:11:28.531Z,4.95
2023-12-23T01:13:56.472Z,1.00
2023-12-23T01:16:24.507Z,1.30
2023-12-23T01:18:52.549Z,1.40
2023-12-23T01:21:21.888Z,3.08
2023-12-23T01:28:45.572Z,1.10
2023-12-23T01:31:13.716Z,0.70
2023-12-23T01:33:41.524Z,0.50
2023-12-23T01:36:09.581Z,0.63
2023-12-23T01:38:37.511Z,0.45
2023-12-23T01:41:05.521Z,0.70
2023-12-23T01:43:33.528Z,1.77
2023-12-23T01:46:01.763Z,0.47
2023-12-23T01:48:33.117Z,0.55
2023-12-23T01:51:00.913Z,0.60
2023-12-23T01:53:28.826Z,0.28
2023-12-23T01:55:57.458Z,0.70
2023-12-23T01:58:25.465Z,0.20
2023-12-23T02:00:53.525Z,0.28
2023-12-23T02:03:22.481Z,0.52
2023-12-23T02:05:50.543Z,0.70
2023-12-23T02:08:18.790Z,1.42
2023-12-23T02:10:50.800Z,0.80
2023-12-23T02:13:31.675Z,0.32
2023-12-23T02:16:01.441Z,0.35
2023-12-23T02:18:29.448Z,0.60
2023-12-23T02:20:57.450Z,1.70
2023-12-23T02:23:25.328Z,0.73
2023-12-23T02:26:01.924Z,0.77
2023-12-23T02:28:29.912Z,1.00
2023-12-23T02:30:58.993Z,0.40
2023-12-23T02:35:54.774Z,1.00
2023-12-23T02:38:24.066Z,1.17
2023-12-23T02:40:52.042Z,1.10
2023-12-23T02:43:19.853Z,1.02
2023-12-23T02:45:47.873Z,0.60
2023-12-23T02:48:15.813Z,0.98
2023-12-23T02:50:43.554Z,1.00
2023-12-23T02:53:11.588Z,0.13
2023-12-23T02:55:39.510Z,0.63
2023-12-23T02:58:07.712Z,0.90
2023-12-23T03:00:35.706Z,0.65
2023-12-23T03:03:03.595Z,0.47
2023-12-23T03:05:31.417Z,0.75
2023-12-23T03:07:59.489Z,0.70
2023-12-23T03:10:27.364Z,0.73
2023-12-23T03:12:55.480Z,0.70
2023-12-23T03:15:23.284Z,1.10
2023-12-23T03:17:51.107Z,1.25
2023-12-23T03:20:18.987Z,0.90
2023-12-23T03:22:47.084Z,0.55
2023-12-23T03:25:14.987Z,0.88
2023-12-23T03:27:42.696Z,0.95
2023-12-23T03:30:11.051Z,0.47
2023-12-23T03:32:38.926Z,1.00
2023-12-23T03:35:07.167Z,1.65
2023-12-23T03:37:34.966Z,0.50
2023-12-23T03:40:02.963Z,0.40
2023-12-23T03:42:31.271Z,0.32
2023-12-23T03:44:59.507Z,0.52
2023-12-23T03:47:27.714Z,0.60
2023-12-23T03:49:55.592Z,0.70
2023-12-23T03:52:23.633Z,0.30
2023-12-23T03:54:52.611Z,0.13
2023-12-23T03:57:20.575Z,0.52
2023-12-23T03:59:48.298Z,0.43
2023-12-23T04:02:16.239Z,0.90
2023-12-23T04:04:44.139Z,0.20
2023-12-23T04:07:13.490Z,0.68
2023-12-23T04:09:42.483Z,0.40
2023-12-23T04:12:13.353Z,0.68
2023-12-23T04:14:44.178Z,0.60
2023-12-23T04:17:13.205Z,0.47
2023-12-23T04:22:08.677Z,0.73
2023-12-23T04:24:36.519Z,0.30
2023-12-23T04:27:05.490Z,0.32
2023-12-23T04:29:33.941Z,0.77
2023-12-23T04:32:01.991Z,1.02
2023-12-23T04:34:29.824Z,0.30
2023-12-23T04:36:57.590Z,0.98
2023-12-23T04:39:25.477Z,0.80
2023-12-23T04:41:55.394Z,0.80
2023-12-23T04:44:23.748Z,0.40
2023-12-23T04:46:53.300Z,0.20
2023-12-23T04:49:21.109Z,0.50
2023-12-23T04:51:48.876Z,0.20
2023-12-23T04:54:17.502Z,0.15
2023-12-23T04:56:45.390Z,0.20
2023-12-23T04:59:13.151Z,0.50
2023-12-23T05:01:41.003Z,0.85
2023-12-23T05:04:08.914Z,1.95
2023-12-23T05:06:36.777Z,0.63
2023-12-23T05:09:07.411Z,0.20
2023-12-23T05:11:35.175Z,0.57
2023-12-23T05:14:03.058Z,1.23
2023-12-23T05:16:30.924Z,0.70
2023-12-23T05:18:58.773Z,1.15
2023-12-23T05:21:26.643Z,0.65
2023-12-23T05:23:54.531Z,0.75
2023-12-23T05:26:22.564Z,0.60
2023-12-23T05:28:50.628Z,0.57
2023-12-23T05:31:18.562Z,0.57
2023-12-23T05:33:47.546Z,0.65
2023-12-23T05:36:15.418Z,0.43
2023-12-23T05:38:43.450Z,0.73
2023-12-23T05:41:11.337Z,1.33
2023-12-23T05:43:39.225Z,1.85
2023-12-23T05:46:07.091Z,0.68
2023-12-23T05:48:35.042Z,0.70
2023-12-23T05:51:04.127Z,1.00
2023-12-23T05:53:32.028Z,0.82
2023-12-23T05:55:59.958Z,0.80
2023-12-23T05:58:27.807Z,1.23
2023-12-23T06:00:55.685Z,1.10
2023-12-23T06:03:23.529Z,0.88
2023-12-23T06:05:52.958Z,0.43
2023-12-23T06:08:21.990Z,1.55
2023-12-23T06:10:57.391Z,0.80
2023-12-23T06:13:29.591Z,1.23
2023-12-23T06:15:57.506Z,1.02
2023-12-23T06:18:25.439Z,0.80
2023-12-23T06:20:53.435Z,1.58
2023-12-23T06:23:21.499Z,1.60
2023-12-23T06:25:49.453Z,0.52
2023-12-23T06:28:17.513Z,0.90
2023-12-23T06:30:45.484Z,0.80
2023-12-23T06:33:13.531Z,0.38
2023-12-23T06:35:41.501Z,0.95
2023-12-23T06:38:09.401Z,0.70
2023-12-23T06:40:37.368Z,0.70
2023-12-23T06:43:43.248Z,0.57
2023-12-23T06:45:53.506Z,0.85
2023-12-23T06:48:21.615Z,0.60
2023-12-23T06:50:49.480Z,0.32
2023-12-23T06:53:17.468Z,0.98
2023-12-23T06:55:45.488Z,0.80
2023-12-23T06:58:13.456Z,1.13
2023-12-23T07:00:41.483Z,1.10
2023-12-23T07:03:09.536Z,0.52
2023-12-23T07:05:37.671Z,1.10
2023-12-23T07:08:05.920Z,1.00
2023-12-23T07:10:33.715Z,0.75
2023-12-23T07:13:01.604Z,0.60
2023-12-23T07:15:29.434Z,0.80
2023-12-23T07:17:57.576Z,0.50
2023-12-23T07:20:25.519Z,1.17
2023-12-23T07:22:53.773Z,0.70
2023-12-23T07:25:22.351Z,0.90
2023-12-23T07:27:50.047Z,1.02
2023-12-23T07:30:17.894Z,0.85
2023-12-23T07:32:45.760Z,1.63
2023-12-23T07:35:13.710Z,0.47
2023-12-23T07:37:42.624Z,0.88
2023-12-23T07:40:10.955Z,0.47
2023-12-23T07:42:38.751Z,0.57
2023-12-23T07:45:07.422Z,1.25
2023-12-23T07:47:35.422Z,0.80
2023-12-23T07:50:03.650Z,1.08
2023-12-23T07:52:31.424Z,1.10
2023-12-23T07:54:59.395Z,1.13
2023-12-23T07:57:27.462Z,1.30
2023-12-23T07:59:55.512Z,0.80
2023-12-23T08:02:23.572Z,1.10
2023-12-23T08:04:51.610Z,0.60
2023-12-23T08:07:19.485Z,0.70
2023-12-23T08:09:47.481Z,1.10
2023-12-23T08:12:15.444Z,1.88
2023-12-23T08:14:43.440Z,1.80
2023-12-23T08:17:12.373Z,1.85
2023-12-23T08:19:40.574Z,1.77
2023-12-23T08:22:08.593Z,1.73
2023-12-23T08:24:36.487Z,1.85
2023-12-23T08:27:04.475Z,2.15
2023-12-23T08:29:32.401Z,2.05
2023-12-23T08:32:00.667Z,2.55
2023-12-23T08:34:29.831Z,2.95
2023-12-23T08:39:25.986Z,1.98
2023-12-23T08:41:53.655Z,2.40
2023-12-23T08:44:22.933Z,1.90
2023-12-23T08:46:50.985Z,2.58
2023-12-23T08:49:18.855Z,2.13
2023-12-23T08:51:46.829Z,2.22
2023-12-23T08:54:14.683Z,2.17
2023-12-23T08:56:42.640Z,2.25
2023-12-23T08:59:10.640Z,1.85
2023-12-23T09:01:38.509Z,2.42
2023-12-23T09:04:06.538Z,2.17
2023-12-23T09:06:34.684Z,2.92
2023-12-23T09:09:03.196Z,2.28
2023-12-23T09:11:31.488Z,3.08
2023-12-23T09:13:59.456Z,2.20
2023-12-23T09:16:27.356Z,2.67
2023-12-23T09:18:55.444Z,1.98
2023-12-23T09:21:23.536Z,2.92
2023-12-23T09:23:51.429Z,2.05
2023-12-23T09:26:19.478Z,2.00
2023-12-23T09:28:47.508Z,1.90
2023-12-23T09:31:15.475Z,2.25
2023-12-23T09:33:43.587Z,2.40
2023-12-23T09:36:11.535Z,1.75
2023-12-23T09:38:39.568Z,2.05
2023-12-23T09:41:07.991Z,3.38
2023-12-23T09:43:36.450Z,2.08
2023-12-23T09:46:06.554Z,2.65
2023-12-23T09:48:34.770Z,3.53
2023-12-23T09:51:02.562Z,4.07
2023-12-23T09:53:36.989Z,2.70
2023-12-23T09:56:06.465Z,1.20
2023-12-23T09:58:35.965Z,2.55
2023-12-23T10:01:04.036Z,2.28
2023-12-23T10:03:31.909Z,2.17
2023-12-23T10:06:03.049Z,2.38
2023-12-23T10:08:31.385Z,2.75
2023-12-23T10:10:59.475Z,2.45
2023-12-23T10:13:27.444Z,1.80
2023-12-23T10:15:55.467Z,2.50
2023-12-23T10:18:23.673Z,2.72
2023-12-23T10:20:51.522Z,2.28
2023-12-23T10:23:19.526Z,1.52
2023-12-23T10:25:47.539Z,1.58
2023-12-23T10:28:19.661Z,1.65
2023-12-23T10:30:52.631Z,1.05
2023-12-23T10:33:23.556Z,1.90
2023-12-23T10:35:52.680Z,0.90
2023-12-23T10:38:24.913Z,0.70
2023-12-23T10:41:01.245Z,0.82
2023-12-23T10:43:29.533Z,0.80
2023-12-23T10:46:01.038Z,0.95
2023-12-23T10:48:33.215Z,1.58
2023-12-23T10:51:03.758Z,1.60
2023-12-23T10:53:32.688Z,1.08
2023-12-23T10:56:00.698Z,0.82
2023-12-23T10:58:31.416Z,1.30
2023-12-23T11:01:01.466Z,1.63
2023-12-23T11:03:35.409Z,1.67
2023-12-23T11:06:09.503Z,2.10
2023-12-23T11:08:39.891Z,5.72
2023-12-23T11:11:08.010Z,5.68
2023-12-23T11:13:35.945Z,5.00
2023-12-23T11:16:04.518Z,4.80
2023-12-23T11:18:33.875Z,5.68
2023-12-23T11:21:02.055Z,3.83
2023-12-23T11:23:31.111Z,4.45
2023-12-23T11:25:59.616Z,5.13
2023-12-23T11:28:33.562Z,3.92
2023-12-23T11:31:02.911Z,3.88
2023-12-23T11:33:39.164Z,3.53
2023-12-23T11:36:08.369Z,4.13
2023-12-23T11:38:52.895Z,2.83
2023-12-23T11:41:22.963Z,3.40
2023-12-23T11:43:52.066Z,4.15
2023-12-23T11:46:27.302Z,3.25
2023-12-23T11:48:58.750Z,2.53
2023-12-23T11:51:26.635Z,2.25
2023-12-23T11:53:57.749Z,2.05
2023-12-23T11:56:27.390Z,2.20
2023-12-23T11:58:55.664Z,1.55
2023-12-23T12:01:23.499Z,1.50
2023-12-23T12:03:51.418Z,0.90
2023-12-23T12:06:19.539Z,1.13
2023-12-23T12:08:47.707Z,1.52
2023-12-23T12:11:15.907Z,1.50
2023-12-23T12:13:47.932Z,1.10
2023-12-23T12:16:15.897Z,1.00
2023-12-23T12:18:44.017Z,0.90
2023-12-23T12:21:11.999Z,1.10
2023-12-23T12:23:40.097Z,0.85
2023-12-23T12:26:09.973Z,1.15
2023-12-23T12:28:38.402Z,0.90
2023-12-23T12:31:15.162Z,0.95
2023-12-23T12:33:46.162Z,0.55
2023-12-23T12:36:17.479Z,0.85
2023-12-23T12:38:46.522Z,1.00
2023-12-23T12:41:15.072Z,1.10
2023-12-23T12:43:44.623Z,0.88
2023-12-23T12:46:18.381Z,0.93
2023-12-23T12:48:47.750Z,0.30
2023-12-23T12:51:19.500Z,1.00
2023-12-23T12:53:48.431Z,0.95
2023-12-23T12:56:23.002Z,1.17
2023-12-23T12:58:55.420Z,0.43
2023-12-23T13:01:23.842Z,0.40
2023-12-23T13:03:52.037Z,0.80
2023-12-23T13:06:20.516Z,0.68
2023-12-23T13:08:48.599Z,0.50
2023-12-23T13:11:16.492Z,0.80
2023-12-23T13:13:46.658Z,0.82
2023-12-23T13:16:15.070Z,0.75
2023-12-23T13:18:49.552Z,0.65
2023-12-23T13:21:25.002Z,0.50
2023-12-23T13:23:52.855Z,0.50
2023-12-23T13:26:20.820Z,0.43
2023-12-23T13:28:52.005Z,0.60
2023-12-23T13:31:22.385Z,0.60
2023-12-23T13:33:50.419Z,0.68
2023-12-23T13:36:18.376Z,0.85
2023-12-23T13:38:46.677Z,1.13
2023-12-23T13:41:20.054Z,0.65
2023-12-23T13:43:48.576Z,0.50
2023-12-23T13:46:16.427Z,0.43
2023-12-23T13:48:45.231Z,0.60
2023-12-23T13:51:13.447Z,4.03
2023-12-23T13:53:41.370Z,0.88
2023-12-23T13:56:10.516Z,0.32
2023-12-23T13:58:38.447Z,0.50
2023-12-23T14:01:06.541Z,0.63
2023-12-23T14:03:35.580Z,0.60
2023-12-23T14:06:04.023Z,0.90
2023-12-23T14:08:31.977Z,0.35
2023-12-23T14:10:59.858Z,0.32
2023-12-23T14:13:28.081Z,0.60
2023-12-23T14:15:56.388Z,0.40
2023-12-23T14:18:24.495Z,0.55
2023-12-23T14:20:52.345Z,0.35
2023-12-23T14:23:20.417Z,0.60
2023-12-23T14:25:48.413Z,0.90
2023-12-23T14:28:18.108Z,0.82
2023-12-23T14:30:46.680Z,0.52
2023-12-23T14:33:14.986Z,0.60
2023-12-23T14:35:43.067Z,0.85
2023-12-23T14:38:11.099Z,0.50
2023-12-23T14:40:39.070Z,0.30
2023-12-23T14:43:06.875Z,0.82
2023-12-23T14:45:34.704Z,0.40
2023-12-23T14:48:02.915Z,0.82
2023-12-23T14:50:30.806Z,0.70
2023-12-23T14:52:58.830Z,0.50
2023-12-23T14:55:27.402Z,0.93
2023-12-23T14:57:55.439Z,0.60
2023-12-23T15:00:23.383Z,0.60
2023-12-23T15:02:51.714Z,0.63
2023-12-23T15:05:19.964Z,0.47
2023-12-23T15:07:47.906Z,0.47
2023-12-23T15:10:15.879Z,0.65
2023-12-23T15:12:44.075Z,0.60
2023-12-23T15:15:11.971Z,0.60
2023-12-23T15:17:40.066Z,0.35
2023-12-23T15:20:09.010Z,0.63
2023-12-23T15:22:36.982Z,0.70
2023-12-23T15:25:05.096Z,0.75
2023-12-23T15:27:33.104Z,1.10
2023-12-23T15:30:03.148Z,0.60
2023-12-23T15:32:31.660Z,0.60
2023-12-23T15:34:59.681Z,0.32
2023-12-23T15:37:28.562Z,0.75
2023-12-23T15:39:56.882Z,0.40
2023-12-23T15:42:24.721Z,0.63
2023-12-23T15:44:53.377Z,1.13
2023-12-23T15:47:21.498Z,0.88
2023-12-23T15:49:49.563Z,1.35
2023-12-23T15:52:17.414Z,1.27
2023-12-23T15:54:46.836Z,0.73
2023-12-23T15:57:14.631Z,1.55
2023-12-23T15:59:42.523Z,1.15
2023-12-23T16:02:10.341Z,2.10
2023-12-23T16:04:39.421Z,0.60
2023-12-23T16:07:07.438Z,0.90
2023-12-23T16:09:35.477Z,1.10
2023-12-23T16:12:03.486Z,1.67
2023-12-23T16:14:32.482Z,1.30
2023-12-23T16:19:28.678Z,0.73
2023-12-23T16:21:56.458Z,2.35
2023-12-23T16:24:24.449Z,1.27
2023-12-23T16:26:52.402Z,1.10
2023-12-23T16:29:21.152Z,1.23
2023-12-23T16:31:49.026Z,1.30
2023-12-23T16:34:16.885Z,1.52
2023-12-23T16:36:45.539Z,1.75
2023-12-23T16:39:13.470Z,1.70
2023-12-23T16:41:41.429Z,1.17
2023-12-23T16:44:09.549Z,1.52
2023-12-23T16:46:37.831Z,1.63
2023-12-23T16:49:05.926Z,1.65
2023-12-23T16:51:33.862Z,1.65
2023-12-23T16:54:02.808Z,2.75
2023-12-23T16:56:31.000Z,1.83
2023-12-23T16:58:58.862Z,1.35
2023-12-23T17:01:27.996Z,1.42
2023-12-23T17:06:23.664Z,1.83
2023-12-23T17:08:51.509Z,1.02
2023-12-23T17:11:21.448Z,1.20
2023-12-23T17:13:49.591Z,2.13
2023-12-23T17:16:18.379Z,1.20
2023-12-23T17:18:46.533Z,1.55
2023-12-23T17:21:14.544Z,1.35
2023-12-23T17:23:42.543Z,1.83
2023-12-23T17:26:10.535Z,1.90
2023-12-23T17:28:38.473Z,2.28
2023-12-23T17:31:06.569Z,2.70
2023-12-23T17:33:34.568Z,3.50
2023-12-23T17:36:02.470Z,2.92
2023-12-23T17:38:30.496Z,2.85
2023-12-23T17:40:58.416Z,1.92
2023-12-23T17:43:26.369Z,2.53
2023-12-23T17:45:54.526Z,9.23
2023-12-23T17:48:22.613Z,2.08
2023-12-23T17:50:50.528Z,7.55
2023-12-23T17:53:18.454Z,2.45
2023-12-23T17:55:46.517Z,3.50
2023-12-23T17:58:14.308Z,1.50
2023-12-23T18:00:42.459Z,2.63
2023-12-23T18:03:10.415Z,2.10
2023-12-23T18:05:38.639Z,22.55
2023-12-23T18:08:06.906Z,22.40
2023-12-23T18:10:34.740Z,30.52
2023-12-23T18:13:04.409Z,80.03
2023-12-23T18:15:32.347Z,81.30
2023-12-23T18:18:00.454Z,10.23
2023-12-23T18:20:28.706Z,12.88
2023-12-23T18:22:56.808Z,3.83
2023-12-23T18:25:26.690Z,6.10
2023-12-23T18:27:54.641Z,10.68
2023-12-23T18:30:22.681Z,17.30
2023-12-23T18:32:51.198Z,6.32
2023-12-23T18:35:19.764Z,10.50
2023-12-23T18:37:47.686Z,6.28
2023-12-23T18:40:15.839Z,1.85
2023-12-23T18:42:43.850Z,2.10
2023-12-23T18:45:12.931Z,1.90
2023-12-23T18:47:40.981Z,1.80
2023-12-23T18:50:09.372Z,2.90
2023-12-23T18:52:37.389Z,2.40
2023-12-23T18:55:06.051Z,2.97
2023-12-23T18:57:33.893Z,5.18
2023-12-23T19:00:01.988Z,12.75
2023-12-23T19:02:29.976Z,4.50
2023-12-23T19:05:03.784Z,4.32
2023-12-23T19:07:32.069Z,3.97
2023-12-23T19:09:59.832Z,3.33
2023-12-23T19:12:27.860Z,2.13
2023-12-23T19:14:55.670Z,2.58
2023-12-23T19:17:23.646Z,3.05
2023-12-23T19:19:51.633Z,5.40
2023-12-23T19:22:24.261Z,5.07
2023-12-23T19:24:52.405Z,6.45
2023-12-23T19:27:20.421Z,5.07
2023-12-23T19:29:48.500Z,6.40
2023-12-23T19:32:16.416Z,5.30
2023-12-23T19:34:44.380Z,5.38
2023-12-23T19:37:12.441Z,5.22
2023-12-23T19:39:41.137Z,3.50
2023-12-23T19:42:10.356Z,6.82
2023-12-23T19:44:38.438Z,7.50
2023-12-23T19:47:06.509Z,5.05
2023-12-23T19:49:34.317Z,3.95
2023-12-23T19:52:02.621Z,5.10
2023-12-23T19:54:30.458Z,4.28
2023-12-23T19:56:58.558Z,5.95
2023-12-23T19:59:26.572Z,8.50
2023-12-23T20:01:54.580Z,5.68
2023-12-23T20:04:22.437Z,5.15
2023-12-23T20:06:50.409Z,6.40
2023-12-23T20:09:20.360Z,5.10
2023-12-23T20:11:48.380Z,4.25
2023-12-23T20:14:16.454Z,4.03
2023-12-23T20:16:44.441Z,6.03
2023-12-23T20:19:14.188Z,5.88
2023-12-23T20:21:41.996Z,6.20
2023-12-23T20:24:10.462Z,5.70
2023-12-23T20:26:38.895Z,5.95
2023-12-23T20:29:08.572Z,6.35
2023-12-23T20:31:38.518Z,5.82
2023-12-23T20:34:08.528Z,4.75
2023-12-23T20:36:42.549Z,5.22
2023-12-23T20:39:10.520Z,5.50
2023-12-23T20:41:41.538Z,9.77
2023-12-23T20:44:10.579Z,7.18
2023-12-23T20:46:38.505Z,6.22
2023-12-23T20:49:06.406Z,4.50
2023-12-23T20:51:36.580Z,7.95
2023-12-23T20:54:05.763Z,18.73
2023-12-23T20:56:33.654Z,8.35
2023-12-23T20:59:01.559Z,24.20
2023-12-23T21:01:29.551Z,17.15
2023-12-23T21:03:57.826Z,4.10
2023-12-23T21:06:25.702Z,15.35
2023-12-23T21:08:53.666Z,28.08
2023-12-23T21:11:21.563Z,11.27
2023-12-23T21:13:49.830Z,13.50
2023-12-23T21:16:17.758Z,11.52
2023-12-23T21:18:46.326Z,3.85
2023-12-23T21:21:14.572Z,13.07
2023-12-23T21:23:42.516Z,5.07
2023-12-23T21:26:23.748Z,5.57
2023-12-23T21:28:51.738Z,4.45
2023-12-23T21:31:19.614Z,9.90
2023-12-23T21:33:47.597Z,4.90
2023-12-23T21:36:15.380Z,5.20
2023-12-23T21:38:43.441Z,4.00
2023-12-23T21:41:11.480Z,13.68
2023-12-23T21:43:39.364Z,2.72
2023-12-23T21:46:07.433Z,2.85
2023-12-23T21:48:35.489Z,3.45
2023-12-23T21:51:04.625Z,3.20
2023-12-23T21:53:32.665Z,2.53
2023-12-23T21:56:00.557Z,7.10
2023-12-23T21:58:28.440Z,16.98
2023-12-23T22:00:56.509Z,4.25
2023-12-23T22:03:27.576Z,5.80
2023-12-23T22:05:55.617Z,3.95
2023-12-23T22:08:23.649Z,3.80
2023-12-23T22:10:51.871Z,4.65
2023-12-23T22:13:19.818Z,3.90
2023-12-23T22:15:47.595Z,4.43
2023-12-23T22:18:15.550Z,7.47
2023-12-23T22:20:43.615Z,3.70
2023-12-23T22:23:13.599Z,2.67
2023-12-23T22:25:41.496Z,3.88
2023-12-23T22:28:09.575Z,3.40
2023-12-23T22:30:37.558Z,3.85
2023-12-23T22:33:08.653Z,5.03
2023-12-23T22:35:36.767Z,12.60
2023-12-23T22:38:05.447Z,5.72
2023-12-23T22:40:33.364Z,3.30
2023-12-23T22:43:01.535Z,3.67
2023-12-23T22:45:29.666Z,3.55
2023-12-23T22:47:57.545Z,3.10
2023-12-23T22:50:25.428Z,3.38
2023-12-23T22:52:53.651Z,3.17
2023-12-23T22:55:22.457Z,2.95
2023-12-23T22:57:50.493Z,3.22
2023-12-23T23:00:26.081Z,3.75
2023-12-23T23:02:54.888Z,2.13
2023-12-23T23:05:23.496Z,2.65
2023-12-23T23:07:51.478Z,3.10
2023-12-23T23:10:19.391Z,2.20
2023-12-23T23:12:47.862Z,2.03
2023-12-23T23:15:15.608Z,1.48
2023-12-23T23:17:43.591Z,1.73
2023-12-23T23:20:12.253Z,1.20
2023-12-23T23:22:41.494Z,1.25
2023-12-23T23:25:09.492Z,1.00
2023-12-23T23:27:37.412Z,1.40
2023-12-23T23:30:05.781Z,1.20
2023-12-23T23:32:33.713Z,0.85
2023-12-23T23:35:08.322Z,1.13
2023-12-23T23:37:39.848Z,0.95
2023-12-23T23:40:08.355Z,1.70
2023-12-23T23:42:37.665Z,1.33
2023-12-23T23:47:33.761Z,1.20
2023-12-23T23:50:05.896Z,1.70
2023-12-23T23:52:35.798Z,2.03
2023-12-23T23:55:04.037Z,1.92
2023-12-23T23:57:32.001Z,2.40
2023-12-23T23:59:59.858Z,1.90
